Time;durP1;ratioP1;P1;durP2;ratioP2;P2;SDS_P1;SDS_P2;PMS_P1;PMS_P2;Temp;Humidity;BMP_temperature;BMP_pressure;BME280_temperature;BME280_humidity;BME280_pressure;Samples;Min_cycle;Max_cycle;Signal;HPM_P1;HPM_P2
2021/10/08 00:02:11;;;;;;;7.10;4.17;;;;;;;5.12;58.17;102126.27;1756662;81;21867;-72
2021/10/08 00:04:38;;;;;;;6.95;4.12;;;;;;;5.11;58.04;102122.36;1755812;81;21012;-72
2021/10/08 00:07:04;;;;;;;8.05;3.65;;;;;;;5.10;58.02;102126.73;1754608;81;21062;-72
2021/10/08 00:09:31;;;;;;;9.80;4.12;;;;;;;5.10;58.03;102124.12;1746667;81;20995;-71
2021/10/08 00:11:58;;;;;;;6.95;3.85;;;;;;;5.08;58.04;102125.94;1735075;82;20992;-72
2021/10/08 00:14:25;;;;;;;7.42;4.00;;;;;;;5.06;58.06;102125.58;1735662;81;22181;-72
2021/10/08 00:16:52;;;;;;;6.60;3.80;;;;;;;5.05;58.07;102123.41;1734881;82;21396;-72
2021/10/08 00:19:18;;;;;;;9.90;4.03;;;;;;;5.03;58.16;102124.36;1735239;82;20979;-71
2021/10/08 00:21:45;;;;;;;8.33;3.62;;;;;;;5.01;58.30;102120.45;1756209;81;21011;-71
2021/10/08 00:24:11;;;;;;;5.40;3.67;;;;;;;4.96;58.34;102118.89;1739701;80;21004;-72
2021/10/08 00:26:40;;;;;;;6.92;3.80;;;;;;;4.94;58.52;102119.39;1730131;81;22443;-72
2021/10/08 00:29:09;;;;;;;6.28;3.87;;;;;;;4.95;58.54;102121.09;1729681;83;21467;-71
2021/10/08 00:31:35;;;;;;;6.22;3.95;;;;;;;4.94;58.57;102120.70;1738222;81;21058;-72
2021/10/08 00:34:02;;;;;;;8.38;4.17;;;;;;;4.94;58.59;102122.00;1751485;81;20951;-71
2021/10/08 00:36:29;;;;;;;7.08;4.33;;;;;;;4.91;58.67;102125.54;1729492;82;20951;-70
2021/10/08 00:38:57;;;;;;;8.50;4.87;;;;;;;4.91;58.64;102116.38;1729453;83;22226;-70
2021/10/08 00:41:24;;;;;;;7.50;3.85;;;;;;;4.94;58.60;102112.84;1732071;81;21617;-71
2021/10/08 00:43:52;;;;;;;7.30;4.50;;;;;;;4.95;58.65;102115.86;1718355;82;21503;-70
2021/10/08 00:46:19;;;;;;;7.45;4.20;;;;;;;4.96;58.55;102113.65;1739129;82;20984;-71
2021/10/08 00:48:51;;;;;;;5.78;4.22;;;;;;;4.98;58.53;102117.93;1743117;81;21470;-70
2021/10/08 00:51:19;;;;;;;8.13;4.85;;;;;;;4.98;58.51;102115.31;1698524;84;22246;-71
2021/10/08 00:53:46;;;;;;;9.48;4.75;;;;;;;4.96;58.51;102119.73;1732551;81;20917;-71
2021/10/08 00:56:12;;;;;;;7.47;4.60;;;;;;;4.93;58.47;102115.91;1699020;84;20961;-71
2021/10/08 00:58:42;;;;;;;7.70;4.45;;;;;;;4.91;58.57;102121.61;1729839;81;21089;-71
2021/10/08 01:01:08;;;;;;;8.18;4.30;;;;;;;4.85;58.71;102115.27;1709246;83;21009;-71
2021/10/08 01:03:36;;;;;;;8.40;4.75;;;;;;;4.77;58.85;102115.92;1753536;81;21849;-72
2021/10/08 01:06:03;;;;;;;7.20;4.47;;;;;;;4.72;59.03;102109.48;1701544;83;21415;-71
2021/10/08 01:08:30;;;;;;;7.35;4.15;;;;;;;4.69;59.17;102106.10;1751407;81;20972;-71
2021/10/08 01:10:57;;;;;;;7.78;4.55;;;;;;;4.65;59.37;102109.72;1698956;84;21122;-72
2021/10/08 01:13:24;;;;;;;6.45;4.65;;;;;;;4.61;59.53;102104.99;1732740;81;21644;-71
2021/10/08 01:15:55;;;;;;;8.30;4.97;;;;;;;4.60;59.59;102109.38;1710421;83;21862;-71
2021/10/08 01:18:26;;;;;;;7.60;4.30;;;;;;;4.58;59.67;102106.39;1730591;81;21384;-72
2021/10/08 01:20:54;;;;;;;7.30;4.37;;;;;;;4.59;59.69;102114.66;1698822;84;21012;-70
2021/10/08 01:23:20;;;;;;;6.12;4.45;;;;;;;4.53;59.88;102110.88;1727769;83;21020;-73
2021/10/08 01:25:50;;;;;;;7.65;4.40;;;;;;;4.47;60.12;102118.45;1764959;80;21470;-71
2021/10/08 01:28:19;;;;;;;6.53;4.53;;;;;;;4.45;60.24;102116.79;1755375;81;21845;-71
2021/10/08 01:30:47;;;;;;;8.28;4.70;;;;;;;4.45;60.30;102117.65;1730137;83;21506;-71
2021/10/08 01:33:15;;;;;;;5.62;4.30;;;;;;;4.43;60.44;102113.33;1761975;81;20952;-71
2021/10/08 01:35:44;;;;;;;7.10;4.75;;;;;;;4.43;60.42;102112.02;1803337;78;21315;-71
2021/10/08 01:38:10;;;;;;;6.78;3.75;;;;;;;4.44;60.45;102114.63;1823642;78;21060;-69
2021/10/08 01:40:37;;;;;;;6.60;4.17;;;;;;;4.33;60.81;102114.02;1823736;78;21850;-70
2021/10/08 01:43:05;;;;;;;8.85;4.40;;;;;;;4.38;60.85;102120.00;1822673;78;21505;-70
2021/10/08 01:45:33;;;;;;;9.85;4.60;;;;;;;4.41;60.83;102123.84;1822654;78;20935;-71
2021/10/08 01:48:00;;;;;;;6.95;4.65;;;;;;;4.44;60.83;102120.28;1823734;78;21438;-71
2021/10/08 01:50:29;;;;;;;7.08;4.42;;;;;;;4.44;60.83;102121.16;1823856;78;21042;-72
2021/10/08 01:52:58;;;;;;;6.53;4.42;;;;;;;4.44;60.91;102125.51;1801946;78;22167;-71
2021/10/08 01:55:23;;;;;;;9.25;5.15;;;;;;;4.46;60.81;102127.66;1794913;78;21006;-71
2021/10/08 01:57:52;;;;;;;5.65;4.55;;;;;;;4.49;60.73;102124.50;1823444;78;20951;-71
2021/10/08 02:00:18;;;;;;;8.35;5.20;;;;;;;4.51;60.63;102125.77;1823730;78;21039;-70
2021/10/08 02:02:46;;;;;;;6.47;4.65;;;;;;;4.51;60.59;102129.69;1800236;78;21050;-71
2021/10/08 02:05:14;;;;;;;8.40;4.97;;;;;;;4.51;60.54;102136.23;1761019;80;22465;-72
2021/10/08 02:07:42;;;;;;;9.08;5.03;;;;;;;4.51;60.44;102131.86;1761916;81;20936;-71
2021/10/08 02:10:09;;;;;;;9.13;5.40;;;;;;;4.54;60.31;102131.80;1758841;81;21020;-71
2021/10/08 02:12:36;;;;;;;9.33;4.92;;;;;;;4.57;60.19;102136.08;1793591;80;21004;-71
2021/10/08 02:15:03;;;;;;;9.83;5.30;;;;;;;4.59;60.10;102139.06;1761792;81;20956;-72
2021/10/08 02:17:30;;;;;;;10.13;5.10;;;;;;;4.62;59.96;102142.48;1819276;78;21761;-74
2021/10/08 02:19:57;;;;;;;8.50;4.50;;;;;;;4.64;59.87;102142.03;1811839;78;21043;-72
2021/10/08 02:22:24;;;;;;;9.13;5.53;;;;;;;4.65;59.77;102137.20;1774223;80;20943;-71
2021/10/08 02:24:51;;;;;;;8.48;5.15;;;;;;;4.66;59.71;102140.22;1796629;78;21035;-72
2021/10/08 02:27:18;;;;;;;6.22;4.80;;;;;;;4.66;59.66;102135.84;1820019;78;21449;-72
2021/10/08 02:29:44;;;;;;;7.08;4.85;;;;;;;4.67;59.60;102140.62;1825777;78;22446;-71
2021/10/08 02:32:12;;;;;;;6.45;4.25;;;;;;;4.67;59.55;102144.09;1824845;78;20936;-72
2021/10/08 02:34:39;;;;;;;7.75;4.47;;;;;;;4.70;59.44;102150.55;1825969;78;21454;-71
2021/10/08 02:37:05;;;;;;;7.25;4.83;;;;;;;4.72;59.38;102151.81;1801691;78;21425;-72
2021/10/08 02:39:32;;;;;;;5.75;4.47;;;;;;;4.73;59.36;102152.22;1793559;80;20951;-70
2021/10/08 02:42:00;;;;;;;8.20;4.33;;;;;;;4.72;59.31;102155.74;1793294;80;22185;-72
2021/10/08 02:44:27;;;;;;;7.10;4.25;;;;;;;4.72;59.28;102155.29;1794742;78;21477;-71
2021/10/08 02:46:53;;;;;;;8.98;4.67;;;;;;;4.74;59.18;102157.89;1793955;78;20995;-71
2021/10/08 02:49:21;;;;;;;10.20;4.70;;;;;;;4.74;59.13;102155.28;1793250;80;20957;-70
2021/10/08 02:51:49;;;;;;;8.03;4.53;;;;;;;4.75;59.10;102159.61;1793663;79;20960;-71
2021/10/08 02:54:16;;;;;;;7.62;4.37;;;;;;;4.76;59.06;102161.32;1794125;78;21838;-72
2021/10/08 02:56:43;;;;;;;7.65;5.10;;;;;;;4.75;59.01;102153.06;1796469;78;20952;-72
2021/10/08 02:59:09;;;;;;;12.45;5.17;;;;;;;4.76;58.93;102160.87;1793556;80;21030;-72
2021/10/08 03:01:36;;;;;;;8.90;4.45;;;;;;;4.77;58.92;102164.34;1823742;78;21155;-71
2021/10/08 03:04:04;;;;;;;7.37;4.37;;;;;;;4.71;58.88;102171.04;1826139;78;20991;-71
2021/10/08 03:06:32;;;;;;;7.87;4.30;;;;;;;4.63;59.02;102164.69;1816264;78;21894;-71
2021/10/08 03:09:00;;;;;;;8.23;4.72;;;;;;;4.60;59.08;102163.47;1793226;80;21385;-71
2021/10/08 03:11:26;;;;;;;8.70;4.80;;;;;;;4.56;59.12;102165.77;1794868;78;21043;-71
2021/10/08 03:13:53;;;;;;;12.53;4.78;;;;;;;4.53;59.10;102166.69;1794470;78;21011;-72
2021/10/08 03:16:19;;;;;;;10.45;4.85;;;;;;;4.50;59.11;102161.55;1793763;78;20959;-72
2021/10/08 03:18:46;;;;;;;8.45;4.97;;;;;;;4.45;59.17;102165.19;1795908;78;22788;-72
2021/10/08 03:21:12;;;;;;;10.63;5.20;;;;;;;4.51;59.04;102168.48;1764430;80;21346;-72
2021/10/08 03:23:39;;;;;;;8.38;5.20;;;;;;;4.53;58.95;102168.45;1794808;78;20967;-71
2021/10/08 03:26:08;;;;;;;8.60;5.10;;;;;;;4.51;58.85;102171.11;1811340;78;21513;-71
2021/10/08 03:28:35;;;;;;;8.10;4.87;;;;;;;4.51;58.79;102178.09;1816974;78;21018;-72
2021/10/08 03:31:02;;;;;;;12.20;4.80;;;;;;;4.51;58.81;102175.48;1793057;80;21881;-71
2021/10/08 03:33:30;;;;;;;9.23;4.78;;;;;;;4.46;58.79;102182.61;1769719;81;20952;-70
2021/10/08 03:35:57;;;;;;;8.53;4.90;;;;;;;4.43;58.77;102178.28;1761677;81;21549;-71
2021/10/08 03:38:24;;;;;;;9.35;4.80;;;;;;;4.42;58.87;102177.02;1746193;81;20991;-70
2021/10/08 03:41:08;;;;;;;8.65;5.20;;;;;;;4.41;58.89;102179.23;1729999;83;20952;-71
2021/10/08 03:43:31;;;;;;;7.60;4.72;;;;;;;4.40;58.83;102179.68;1742544;81;21867;-72
2021/10/08 03:46:01;;;;;;;7.30;4.60;;;;;;;4.41;58.79;102184.46;1742709;82;21042;-70
2021/10/08 03:51:13;;;;;;;7.97;4.97;;;;;;;4.37;58.72;102183.69;1743743;81;20963;-73
2021/10/08 03:53:39;;;;;;;7.47;4.70;;;;;;;4.35;58.83;102174.17;1756927;81;20983;-71
2021/10/08 03:56:05;;;;;;;8.55;5.03;;;;;;;4.32;58.89;102177.70;1773439;81;21784;-71
2021/10/08 03:58:32;;;;;;;7.42;5.15;;;;;;;4.30;58.91;102180.36;1773727;81;20968;-70
2021/10/08 04:00:58;;;;;;;8.75;5.03;;;;;;;4.29;58.97;102181.70;1773634;81;21498;-71
2021/10/08 04:03:25;;;;;;;10.68;5.33;;;;;;;4.26;58.99;102177.88;1767375;81;21047;-70
2021/10/08 04:05:51;;;;;;;9.00;4.80;;;;;;;4.24;59.01;102185.72;1742855;82;20951;-72
2021/10/08 04:08:18;;;;;;;12.28;5.42;;;;;;;4.22;59.06;102186.22;1755500;81;22241;-71
2021/10/08 04:10:46;;;;;;;13.88;5.60;;;;;;;4.19;59.13;102186.75;1772865;81;21026;-70
2021/10/08 04:13:14;;;;;;;7.62;4.95;;;;;;;4.18;59.19;102188.51;1771416;81;21007;-70
2021/10/08 04:15:41;;;;;;;8.40;5.08;;;;;;;4.16;59.26;102194.23;1773439;81;20987;-71
2021/10/08 04:18:11;;;;;;;9.43;5.03;;;;;;;4.14;59.28;102196.45;1758964;81;20996;-71
2021/10/08 04:20:37;;;;;;;8.00;5.58;;;;;;;4.14;59.35;102197.30;1773418;81;22487;-70
2021/10/08 04:23:03;;;;;;;7.50;5.30;;;;;;;4.13;59.35;102199.52;1772862;81;20936;-72
2021/10/08 04:25:30;;;;;;;8.18;5.67;;;;;;;4.12;59.43;102201.72;1773314;80;20975;-71
2021/10/08 04:27:57;;;;;;;6.67;4.70;;;;;;;4.10;59.39;102198.73;1784440;80;21447;-71
2021/10/08 04:30:23;;;;;;;9.15;4.90;;;;;;;4.11;59.35;102199.14;1765911;81;20951;-70
2021/10/08 04:32:50;;;;;;;8.50;5.28;;;;;;;4.10;59.26;102203.97;1800766;78;22180;-71
2021/10/08 04:35:18;;;;;;;10.82;5.22;;;;;;;4.10;59.15;102202.66;1803393;78;20919;-71
2021/10/08 04:37:44;;;;;;;9.10;5.20;;;;;;;4.11;59.16;102200.00;1789428;78;20975;-71
2021/10/08 04:40:12;;;;;;;9.03;4.87;;;;;;;4.11;59.11;102201.76;1789148;78;21007;-72
2021/10/08 04:42:41;;;;;;;8.88;4.70;;;;;;;4.13;58.93;102203.88;1736667;81;20959;-72
2021/10/08 04:45:10;;;;;;;8.73;5.05;;;;;;;4.15;58.77;102203.39;1713007;81;22511;-70
2021/10/08 04:47:38;;;;;;;12.03;4.87;;;;;;;4.19;58.67;102204.61;1751816;81;21070;-71
2021/10/08 04:50:07;;;;;;;10.13;4.50;;;;;;;4.20;58.62;102204.16;1788857;80;21035;-71
2021/10/08 04:52:35;;;;;;;7.28;4.25;;;;;;;4.22;58.54;102203.67;1788543;80;21034;-71
2021/10/08 04:55:02;;;;;;;8.98;4.42;;;;;;;4.24;58.38;102208.41;1788971;80;20964;-71
2021/10/08 04:57:29;;;;;;;5.22;4.20;;;;;;;4.25;58.38;102207.09;1817369;78;22591;-71
2021/10/08 04:59:55;;;;;;;8.70;4.60;;;;;;;4.27;58.21;102212.28;1799053;78;21023;-71
2021/10/08 05:02:22;;;;;;;11.33;4.20;;;;;;;4.27;58.08;102205.73;1793804;78;21085;-71
2021/10/08 05:04:48;;;;;;;8.25;4.28;;;;;;;4.30;57.99;102212.20;1801644;78;20975;-71
2021/10/08 05:07:15;;;;;;;13.25;4.87;;;;;;;4.33;57.92;102211.25;1793451;78;21082;-71
2021/10/08 05:09:42;;;;;;;6.95;4.60;;;;;;;4.37;57.93;102214.23;1798397;78;21778;-71
2021/10/08 05:12:09;;;;;;;6.90;4.47;;;;;;;4.39;57.83;102212.42;1799246;78;21031;-71
2021/10/08 05:14:36;;;;;;;8.70;5.08;;;;;;;4.39;57.88;102219.83;1789174;78;21042;-72
2021/10/08 05:17:04;;;;;;;8.73;4.15;;;;;;;4.41;57.83;102224.56;1819674;78;21494;-72
2021/10/08 05:19:33;;;;;;;9.35;4.47;;;;;;;4.45;57.82;102222.75;1798185;78;20948;-72
2021/10/08 05:22:01;;;;;;;10.40;5.10;;;;;;;4.46;57.74;102219.23;1797465;78;22847;-71
2021/10/08 05:24:28;;;;;;;10.05;4.87;;;;;;;4.48;57.57;102230.07;1794004;78;21042;-71
2021/10/08 05:26:54;;;;;;;8.43;4.65;;;;;;;4.51;57.61;102225.20;1806074;78;21466;-71
2021/10/08 05:29:21;;;;;;;8.13;4.87;;;;;;;4.53;57.67;102223.40;1794036;78;20955;-72
2021/10/08 05:31:47;;;;;;;8.33;4.58;;;;;;;4.57;57.68;102220.69;1794344;80;20983;-71
2021/10/08 05:34:14;;;;;;;8.28;4.70;;;;;;;4.65;57.65;102222.26;1795278;78;22640;-71
2021/10/08 05:36:41;;;;;;;8.48;4.87;;;;;;;4.73;57.59;102218.55;1786507;78;21411;-72
2021/10/08 05:39:07;;;;;;;6.60;4.45;;;;;;;4.78;57.07;102207.95;1806282;78;21083;-71
2021/10/08 05:41:35;;;;;;;9.10;4.70;;;;;;;4.87;57.01;102215.56;1726685;83;20969;-72
2021/10/08 05:44:03;;;;;;;7.45;4.97;;;;;;;4.93;56.85;102218.03;1763659;80;20939;-72
2021/10/08 05:46:30;;;;;;;9.33;4.55;;;;;;;5.02;56.77;102212.55;1826705;78;21826;-71
2021/10/08 05:48:56;;;;;;;8.05;5.05;;;;;;;5.11;56.50;102225.81;1827074;78;20975;-71
2021/10/08 05:51:23;;;;;;;9.10;4.67;;;;;;;5.17;56.34;102227.83;1825087;78;20998;-72
2021/10/08 05:53:49;;;;;;;6.85;4.83;;;;;;;5.23;55.97;102222.03;1815145;78;21459;-73
2021/10/08 05:56:16;;;;;;;10.23;5.00;;;;;;;5.30;55.95;102222.23;1820957;78;21065;-70
2021/10/08 05:58:43;;;;;;;9.53;4.70;;;;;;;5.36;55.54;102224.25;1798934;78;21759;-70
2021/10/08 06:01:10;;;;;;;9.70;5.08;;;;;;;5.38;55.18;102219.81;1797079;78;21411;-72
2021/10/08 06:03:37;;;;;;;10.93;5.17;;;;;;;5.42;55.25;102216.68;1807448;78;20987;-71
2021/10/08 06:06:04;;;;;;;8.55;5.30;;;;;;;5.48;55.09;102216.48;1822530;78;20951;-72
2021/10/08 06:08:31;;;;;;;10.78;5.20;;;;;;;5.55;54.83;102215.86;1805040;78;21023;-72
2021/10/08 06:10:57;;;;;;;9.75;5.30;;;;;;;5.62;54.94;102213.02;1801953;78;22162;-72
2021/10/08 06:13:24;;;;;;;6.37;4.67;;;;;;;5.70;54.81;102211.04;1794507;79;20991;-72
2021/10/08 06:15:52;;;;;;;8.28;4.70;;;;;;;5.82;54.42;102214.19;1794162;80;20927;-73
2021/10/08 06:18:19;;;;;;;7.83;4.87;;;;;;;5.87;54.09;102221.45;1796739;78;20996;-72
2021/10/08 06:20:45;;;;;;;9.63;5.40;;;;;;;5.87;53.43;102210.51;1800992;78;21049;-74
2021/10/08 06:23:14;;;;;;;7.67;4.60;;;;;;;5.87;53.84;102208.34;1811825;78;21838;-74
2021/10/08 06:25:41;;;;;;;11.30;4.97;;;;;;;5.91;53.95;102217.43;1806766;78;20947;-73
2021/10/08 06:28:08;;;;;;;9.48;4.90;;;;;;;5.94;53.79;102210.77;1793118;80;21034;-73
2021/10/08 06:30:35;;;;;;;8.40;4.80;;;;;;;5.94;53.78;102213.39;1752985;81;21423;-72
2021/10/08 06:33:01;;;;;;;12.18;4.92;;;;;;;5.94;53.74;102208.60;1723271;81;20996;-72
2021/10/08 06:35:28;;;;;;;9.48;4.92;;;;;;;6.00;53.86;102207.11;1753034;81;22352;-72
2021/10/08 06:37:55;;;;;;;7.83;4.90;;;;;;;6.12;53.85;102204.55;1726361;83;21070;-72
2021/10/08 06:40:23;;;;;;;7.47;4.17;;;;;;;6.22;53.79;102200.72;1696166;81;21079;-72
2021/10/08 06:42:50;;;;;;;7.47;4.87;;;;;;;6.27;53.55;102202.31;1754414;81;20996;-72
2021/10/08 06:45:25;;;;;;;6.25;4.15;;;;;;;6.29;53.54;102198.31;1746110;81;20936;-72
2021/10/08 06:47:52;;;;;;;6.10;4.17;;;;;;;6.31;53.09;102192.55;1765176;81;22814;-71
2021/10/08 06:50:20;;;;;;;7.37;4.15;;;;;;;6.24;53.19;102186.64;1765319;81;20979;-72
2021/10/08 06:52:47;;;;;;;10.68;4.50;;;;;;;6.30;53.16;102190.39;1765088;81;20968;-73
2021/10/08 06:55:13;;;;;;;8.60;4.35;;;;;;;6.45;53.30;102190.78;1765569;81;21066;-72
2021/10/08 06:57:40;;;;;;;6.92;4.15;;;;;;;6.61;52.97;102188.05;1760191;81;20999;-72
2021/10/08 07:00:08;;;;;;;7.83;4.47;;;;;;;6.75;52.83;102181.00;1735222;82;22155;-72
2021/10/08 07:02:48;;;;;;;5.95;3.72;;;;;;;6.95;52.81;102180.30;1734706;82;20944;-72
2021/10/08 07:05:16;;;;;;;8.23;3.90;;;;;;;7.17;51.82;102181.27;1735070;82;21015;-72
2021/10/08 07:07:43;;;;;;;11.70;4.72;;;;;;;7.34;51.16;102178.03;1734918;82;21375;-72
2021/10/08 07:10:11;;;;;;;8.68;4.35;;;;;;;7.43;51.03;102182.48;1734856;82;21000;-72
2021/10/08 07:12:37;;;;;;;9.25;3.92;;;;;;;7.51;51.20;102182.17;1734834;82;22717;-72
2021/10/08 07:15:12;;;;;;;9.13;4.35;;;;;;;7.62;50.95;102172.09;1735841;81;21038;-72
2021/10/08 07:17:40;;;;;;;6.47;3.92;;;;;;;7.78;50.62;102183.36;1705495;81;21003;-72
2021/10/08 07:20:07;;;;;;;6.33;3.98;;;;;;;7.92;49.98;102172.70;1746916;81;21105;-74
2021/10/08 07:22:36;;;;;;;9.30;4.37;;;;;;;8.03;49.33;102175.77;1760723;81;20995;-72
2021/10/08 07:25:05;;;;;;;9.03;4.37;;;;;;;8.20;49.45;102171.57;1756069;80;22191;-71
2021/10/08 07:27:33;;;;;;;11.65;4.20;;;;;;;8.37;49.21;102178.81;1751879;81;20976;-71
2021/10/08 07:29:59;;;;;;;10.03;4.47;;;;;;;8.47;48.62;102177.52;1744502;81;21008;-70
2021/10/08 07:32:28;;;;;;;10.75;4.70;;;;;;;8.46;47.71;102173.17;1739903;81;21054;-72
2021/10/08 07:34:55;;;;;;;12.78;4.70;;;;;;;8.35;47.99;102175.39;1753507;81;21602;-70
2021/10/08 07:37:22;;;;;;;7.72;4.12;;;;;;;8.32;48.72;102171.94;1725243;82;21798;-71
2021/10/08 07:39:49;;;;;;;7.53;3.98;;;;;;;8.40;49.07;102170.34;1758631;81;21402;-71
2021/10/08 07:42:15;;;;;;;8.03;4.12;;;;;;;8.58;49.23;102159.02;1718848;83;21044;-73
2021/10/08 07:44:42;;;;;;;8.35;3.92;;;;;;;8.85;49.00;102163.56;1736094;81;21332;-72
2021/10/08 07:47:08;;;;;;;7.45;4.20;;;;;;;9.18;46.97;102169.13;1711984;83;21040;-70
2021/10/08 07:49:35;;;;;;;8.98;4.03;;;;;;;9.38;46.43;102172.19;1736020;81;21837;-71
2021/10/08 07:52:01;;;;;;;6.50;4.35;;;;;;;9.44;45.03;102161.33;1704926;84;20948;-72
2021/10/08 07:54:28;;;;;;;10.43;4.22;;;;;;;9.39;45.17;102164.66;1768679;81;20968;-71
2021/10/08 07:56:55;;;;;;;8.68;3.72;;;;;;;9.39;45.33;102169.08;1772321;81;20928;-71
2021/10/08 07:59:22;;;;;;;13.13;3.65;;;;;;;9.35;45.31;102167.02;1759516;81;21411;-72
2021/10/08 08:01:48;;;;;;;12.18;3.55;;;;;;;9.33;45.23;102168.03;1728272;83;22832;-71
2021/10/08 08:04:14;;;;;;;11.75;3.67;;;;;;;9.27;44.77;102178.87;1732181;81;20936;-71
2021/10/08 08:06:41;;;;;;;7.15;3.60;;;;;;;9.23;44.89;102186.52;1703613;83;21427;-69
2021/10/08 08:09:07;;;;;;;6.92;3.60;;;;;;;9.15;45.00;102192.13;1724845;82;21377;-70
2021/10/08 08:11:34;;;;;;;9.23;3.75;;;;;;;9.09;45.33;102197.22;1709651;84;21011;-72
2021/10/08 08:14:01;;;;;;;10.98;4.22;;;;;;;9.00;45.76;102191.50;1709344;82;22211;-73
2021/10/08 08:16:27;;;;;;;10.38;3.98;;;;;;;8.93;46.20;102190.90;1724466;82;21067;-70
2021/10/08 08:18:54;;;;;;;8.00;4.08;;;;;;;8.83;46.54;102193.54;1709417;84;21037;-69
2021/10/08 08:21:22;;;;;;;7.62;3.62;;;;;;;8.78;47.07;102191.55;1733153;81;21465;-69
2021/10/08 08:23:48;;;;;;;9.95;3.47;;;;;;;8.78;47.13;102191.12;1710449;83;21021;-70
2021/10/08 08:26:15;;;;;;;12.23;4.00;;;;;;;8.78;47.34;102188.91;1751958;80;22184;-70
2021/10/08 08:28:41;;;;;;;8.63;3.58;;;;;;;8.73;48.14;102180.37;1826322;77;21038;-71
2021/10/08 08:31:09;;;;;;;9.05;3.47;;;;;;;8.65;49.48;102178.52;1806215;78;21003;-71
2021/10/08 08:33:36;;;;;;;9.28;3.58;;;;;;;8.48;50.04;102180.08;1811716;78;21093;-72
2021/10/08 08:36:03;;;;;;;15.68;3.77;;;;;;;8.46;50.62;102180.61;1824183;78;21112;-70
2021/10/08 08:38:32;;;;;;;10.68;3.80;;;;;;;8.49;51.09;102188.40;1801567;78;21442;-70
2021/10/08 08:40:59;;;;;;;9.90;3.25;;;;;;;8.57;50.95;102186.27;1801595;78;21470;-71
2021/10/08 08:43:28;;;;;;;9.10;3.35;;;;;;;8.67;50.67;102180.62;1803343;78;21027;-71
2021/10/08 08:45:56;;;;;;;12.33;4.37;;;;;;;8.71;50.52;102173.85;1820023;78;21492;-71
2021/10/08 08:48:22;;;;;;;8.23;3.65;;;;;;;8.83;50.64;102174.63;1801824;78;20990;-73
2021/10/08 08:50:49;;;;;;;8.50;3.50;;;;;;;8.95;50.21;102173.23;1813848;78;22378;-73
2021/10/08 08:53:21;;;;;;;12.47;3.60;;;;;;;9.06;49.54;102174.08;1799686;78;21097;-72
2021/10/08 08:55:49;;;;;;;11.40;3.75;;;;;;;9.15;48.84;102173.20;1755429;80;21527;-72
2021/10/08 08:58:18;;;;;;;10.25;3.37;;;;;;;9.18;48.14;102177.05;1755483;81;21055;-71
2021/10/08 09:00:46;;;;;;;10.20;3.65;;;;;;;9.24;48.27;102171.94;1743868;82;21430;-71
2021/10/08 09:03:14;;;;;;;11.73;3.45;;;;;;;9.33;48.04;102179.44;1743001;81;22239;-69
2021/10/08 09:05:45;;;;;;;8.20;3.10;;;;;;;9.37;47.85;102172.26;1743794;81;20954;-72
2021/10/08 09:08:13;;;;;;;10.13;3.10;;;;;;;9.47;47.94;102181.45;1794006;79;20968;-71
2021/10/08 09:10:42;;;;;;;8.43;2.92;;;;;;;9.58;47.78;102175.69;1794292;80;20979;-72
2021/10/08 09:13:09;;;;;;;10.15;2.85;;;;;;;9.70;47.47;102175.95;1769864;80;21433;-70
2021/10/08 09:15:53;;;;;;;6.67;2.40;;;;;;;9.82;46.18;102163.10;1795186;78;22170;-70
2021/10/08 09:18:20;;;;;;;;;;;;;;;9.89;45.75;102163.21;1797064;80;20998;-70
2021/10/08 09:21:08;;;;;;;10.65;2.75;;;;;;;9.97;45.80;102165.02;1794239;80;20187;-69
2021/10/08 09:23:46;;;;;;;20.55;2.70;;;;;;;10.05;45.64;102158.91;1812611;78;21026;-70
2021/10/08 09:26:27;;;;;;;12.05;2.30;;;;;;;10.14;45.47;102157.61;1824898;78;28096;-70
2021/10/08 09:29:00;;;;;;;12.95;2.58;;;;;;;10.25;45.61;102153.53;1825772;78;21754;-70
2021/10/08 09:31:41;;;;;;;;;;;;;;;10.39;44.32;102152.83;1806818;78;20997;-70
2021/10/08 09:34:21;;;;;;;9.93;2.42;;;;;;;10.51;43.49;102151.34;1793349;80;20194;-70
2021/10/08 09:36:53;;;;;;;12.93;2.22;;;;;;;10.63;43.86;102141.50;1764536;80;21007;-70
2021/10/08 09:39:20;;;;;;;7.05;2.22;;;;;;;10.79;43.22;102148.14;1792796;80;20999;-70
2021/10/08 09:42:00;;;;;;;9.05;2.40;;;;;;;10.98;43.32;102148.03;1793661;80;21789;-70
2021/10/08 09:44:28;;;;;;;10.78;2.45;;;;;;;11.16;42.83;102148.38;1779285;78;20915;-70
2021/10/08 09:47:15;;;;;;;12.63;2.33;;;;;;;11.31;41.72;102139.64;1825788;78;20947;-70
2021/10/08 09:49:43;;;;;;;14.63;2.58;;;;;;;11.38;41.53;102138.34;1824953;78;21007;-70
2021/10/08 09:52:28;;;;;;;9.65;2.80;;;;;;;11.42;41.90;102141.22;1796336;78;21058;-69
2021/10/08 09:54:58;;;;;;;11.08;2.45;;;;;;;11.53;42.20;102137.12;1825686;78;22240;-69
2021/10/08 09:57:25;;;;;;;8.73;2.20;;;;;;;11.74;42.34;102139.90;1825187;78;21062;-69
2021/10/08 09:59:52;;;;;;;9.75;2.65;;;;;;;11.99;41.79;102130.14;1793607;78;21022;-70
2021/10/08 10:02:21;;;;;;;11.05;1.90;;;;;;;12.12;40.49;102130.27;1806770;78;21089;-71
2021/10/08 10:04:59;;;;;;;8.95;2.05;;;;;;;12.22;40.62;102126.14;1814690;78;21067;-70
2021/10/08 10:07:26;;;;;;;6.25;1.90;;;;;;;12.27;40.29;102122.30;1792109;80;21864;-70
2021/10/08 10:09:52;;;;;;;9.83;2.40;;;;;;;12.31;40.55;102122.48;1791640;80;21179;-73
2021/10/08 10:12:21;;;;;;;11.05;2.35;;;;;;;12.32;38.86;102125.98;1791835;80;21489;-71
2021/10/08 10:14:49;;;;;;;10.75;2.40;;;;;;;12.14;38.99;102121.29;1791710;80;21070;-73
2021/10/08 10:17:17;;;;;;;7.70;2.33;;;;;;;12.08;39.00;102126.11;1791698;80;21097;-72
2021/10/08 10:19:45;;;;;;;7.22;2.80;;;;;;;12.09;38.91;102122.05;1791666;80;21835;-72
2021/10/08 10:22:17;;;;;;;9.10;2.17;;;;;;;12.12;38.39;102119.68;1792913;78;21508;-72
2021/10/08 10:24:47;;;;;;;8.95;2.45;;;;;;;12.17;38.61;102115.83;1791037;80;21101;-72
2021/10/08 10:27:16;;;;;;;8.73;2.55;;;;;;;12.27;38.58;102105.08;1791507;80;21038;-73
2021/10/08 10:29:45;;;;;;;12.25;2.50;;;;;;;12.47;38.44;102111.84;1791783;80;21050;-72
2021/10/08 10:32:12;;;;;;;8.55;2.40;;;;;;;12.72;38.86;102119.62;1751814;81;22183;-72
2021/10/08 10:34:39;;;;;;;12.20;2.80;;;;;;;12.97;38.02;102109.71;1724810;83;21059;-72
2021/10/08 10:37:07;;;;;;;7.58;2.20;;;;;;;13.21;37.97;102111.33;1725182;83;21490;-72
2021/10/08 10:39:35;;;;;;;9.48;2.55;;;;;;;13.35;36.86;102116.63;1725975;81;21030;-71
2021/10/08 10:42:13;;;;;;;9.20;2.50;;;;;;;13.21;37.18;102112.66;1725013;83;21509;-73
2021/10/08 10:47:24;;;;;;;7.08;2.40;;;;;;;13.34;38.23;102114.94;1724839;83;21086;-73
2021/10/08 10:50:21;;;;;;;13.28;2.50;;;;;;;13.40;37.13;102112.72;1692975;83;21031;-72
2021/10/08 10:52:53;;;;;;;12.43;2.27;;;;;;;13.37;37.38;102116.05;1724065;81;21596;-72
2021/10/08 10:55:21;;;;;;;14.80;2.85;;;;;;;13.48;36.99;102120.68;1754645;81;21070;-72
2021/10/08 10:57:58;;;;;;;8.20;3.00;;;;;;;13.53;37.00;102115.94;1724972;83;22685;-72
2021/10/08 11:00:30;;;;;;;12.58;3.10;;;;;;;13.55;36.44;102104.74;1725088;83;21011;-73
2021/10/08 11:03:12;;;;;;;18.15;3.45;;;;;;;13.57;36.05;102101.03;1725246;81;21071;-72
2021/10/08 11:06:02;;;;;;;7.58;2.62;;;;;;;13.75;36.48;102095.85;1725074;83;21549;-73
2021/10/08 11:08:29;;;;;;;13.38;2.80;;;;;;;14.06;36.62;102088.98;1730910;81;21067;-71
2021/10/08 11:11:14;;;;;;;10.25;2.77;;;;;;;14.24;35.81;102090.41;1721907;81;21004;-70
2021/10/08 11:13:40;;;;;;;15.30;2.75;;;;;;;14.10;35.92;102086.52;1726067;81;21035;-70
2021/10/08 11:16:10;;;;;;;13.22;2.70;;;;;;;14.01;36.24;102084.84;1751913;81;20928;-74
2021/10/08 11:18:50;;;;;;;10.13;2.80;;;;;;;13.89;36.05;102086.97;1691585;83;21052;-72
2021/10/08 11:21:34;;;;;;;13.65;2.80;;;;;;;13.83;36.55;102082.56;1719270;83;21075;-72
2021/10/08 11:24:20;;;;;;;11.30;3.00;;;;;;;13.92;36.38;102085.45;1720630;82;22243;-74
2021/10/08 11:26:56;;;;;;;8.18;2.42;;;;;;;14.01;35.65;102075.55;1758066;81;21046;-72
2021/10/08 11:29:22;;;;;;;10.10;2.75;;;;;;;14.14;33.81;102075.56;1759651;81;21003;-71
2021/10/08 11:32:09;;;;;;;20.08;2.92;;;;;;;14.15;32.93;102071.10;1739213;82;20968;-72
2021/10/08 11:34:56;;;;;;;8.93;2.90;;;;;;;13.99;33.36;102074.80;1740303;82;21578;-71
2021/10/08 11:37:22;;;;;;;13.53;2.80;;;;;;;13.90;33.68;102087.37;1740336;82;22657;-71
2021/10/08 11:39:50;;;;;;;10.70;3.17;;;;;;;13.77;32.91;102081.14;1740275;82;21039;-71
2021/10/08 11:42:19;;;;;;;9.50;3.05;;;;;;;13.54;33.73;102080.48;1740228;82;21030;-72